createdAt,value
2018-08-06T00:02:14.011Z,14.20
2018-08-06T00:04:43.072Z,13.37
2018-08-06T00:07:12.163Z,14.40
2018-08-06T00:09:41.208Z,16.50
2018-08-06T00:12:10.304Z,15.90
2018-08-06T00:14:39.362Z,17.63
2018-08-06T00:17:08.457Z,16.37
2018-08-06T00:22:13.209Z,17.00
2018-08-06T00:24:42.267Z,15.45
2018-08-06T00:27:12.308Z,15.60
2018-08-06T00:32:18.093Z,16.30
2018-08-06T00:34:47.136Z,16.02
2018-08-06T00:37:16.207Z,14.10
2018-08-06T00:39:45.262Z,15.37
2018-08-06T00:42:14.326Z,14.13
2018-08-06T00:44:43.393Z,15.07
2018-08-06T00:47:12.455Z,14.40
2018-08-06T00:49:41.529Z,15.43
2018-08-06T00:52:10.599Z,16.07
2018-08-06T00:54:40.591Z,15.47
2018-08-06T00:59:45.375Z,16.90
2018-08-06T01:02:14.454Z,15.73
2018-08-06T01:04:43.564Z,16.87
2018-08-06T01:07:12.643Z,15.90
2018-08-06T01:09:42.660Z,15.73
2018-08-06T01:14:47.476Z,17.60
2018-08-06T01:17:16.585Z,16.85
2018-08-06T01:19:45.702Z,14.80
2018-08-06T01:22:15.159Z,15.00
2018-08-06T01:27:20.024Z,16.55
2018-08-06T01:29:49.075Z,17.73
2018-08-06T01:32:18.121Z,17.20
2018-08-06T01:34:47.198Z,15.70
2018-08-06T01:37:16.329Z,16.37
2018-08-06T01:39:45.389Z,15.13
2018-08-06T01:42:14.454Z,16.87
2018-08-06T01:44:43.520Z,16.27
2018-08-06T01:47:12.569Z,15.90
2018-08-06T01:49:41.624Z,15.50
2018-08-06T01:52:11.685Z,16.10
2018-08-06T01:54:40.749Z,16.70
2018-08-06T01:57:09.806Z,15.90
2018-08-06T01:59:38.861Z,16.07
2018-08-06T02:02:07.910Z,13.77
2018-08-06T02:07:12.750Z,17.47
2018-08-06T02:09:41.807Z,16.70
2018-08-06T02:14:08.634Z,16.60
2018-08-06T02:16:37.689Z,16.93
2018-08-06T02:19:06.757Z,16.83
2018-08-06T02:21:37.762Z,15.73
2018-08-06T02:24:07.810Z,16.53
2018-08-06T02:31:48.516Z,17.33
2018-08-06T02:36:53.267Z,15.88
2018-08-06T02:39:22.401Z,17.27
2018-08-06T02:41:51.459Z,16.08
2018-08-06T02:44:20.539Z,15.40
2018-08-06T02:46:50.553Z,15.60
2018-08-06T02:49:19.660Z,15.87
2018-08-06T02:51:48.694Z,15.93
2018-08-06T02:56:53.521Z,17.30
2018-08-06T02:59:23.526Z,17.43
2018-08-06T03:01:52.685Z,17.93
2018-08-06T03:04:21.732Z,17.23
2018-08-06T03:06:50.797Z,16.30
2018-08-06T03:09:19.845Z,18.07
2018-08-06T03:11:48.927Z,17.00
2018-08-06T03:14:17.986Z,17.70
2018-08-06T03:16:47.047Z,17.80
2018-08-06T03:21:51.897Z,18.30
2018-08-06T03:24:20.973Z,18.53
2018-08-06T03:26:50.082Z,18.33
2018-08-06T03:29:19.125Z,19.60
2018-08-06T03:31:48.338Z,20.63
2018-08-06T03:34:17.413Z,25.80
2018-08-06T03:36:46.491Z,19.07
2018-08-06T03:39:15.561Z,19.47
2018-08-06T03:44:20.609Z,18.87
2018-08-06T03:46:50.643Z,18.60
2018-08-06T03:49:19.820Z,17.53
2018-08-06T03:51:48.904Z,16.77
2018-08-06T03:54:17.966Z,16.87
2018-08-06T03:56:47.988Z,21.47
2018-08-06T03:59:17.033Z,20.93
2018-08-06T04:01:46.118Z,17.50
2018-08-06T04:04:15.177Z,18.70
2018-08-06T04:06:44.266Z,20.77
2018-08-06T04:09:14.297Z,20.83
2018-08-06T04:11:43.418Z,20.27
2018-08-06T04:14:15.430Z,18.33
2018-08-06T04:19:34.076Z,20.40
2018-08-06T04:22:15.993Z,20.10
2018-08-06T04:24:45.837Z,17.87
2018-08-06T04:27:15.269Z,18.77
2018-08-06T04:32:20.116Z,19.40
2018-08-06T04:34:49.185Z,19.20
2018-08-06T04:37:19.207Z,18.40
2018-08-06T04:39:48.287Z,17.50
2018-08-06T04:42:17.342Z,16.53
2018-08-06T04:44:46.421Z,17.80
2018-08-06T04:47:17.473Z,18.00
2018-08-06T04:49:46.517Z,16.50
2018-08-06T04:52:15.988Z,17.10
2018-08-06T04:54:47.398Z,18.37
2018-08-06T04:57:16.629Z,17.53
2018-08-06T05:02:21.722Z,20.57
2018-08-06T05:04:51.241Z,19.60
2018-08-06T05:07:20.298Z,19.53
2018-08-06T05:12:25.142Z,20.50
2018-08-06T05:14:54.225Z,19.87
2018-08-06T05:17:23.300Z,20.73
2018-08-06T05:19:52.424Z,18.03
2018-08-06T05:22:21.611Z,18.47
2018-08-06T05:27:26.691Z,24.23
2018-08-06T05:29:55.754Z,21.40
2018-08-06T05:32:24.849Z,23.13
2018-08-06T05:34:54.226Z,18.93
2018-08-06T05:37:25.216Z,17.53
2018-08-06T05:39:54.352Z,18.30
2018-08-06T05:42:23.581Z,17.47
2018-08-06T05:44:52.634Z,16.83
2018-08-06T05:47:21.686Z,19.50
2018-08-06T05:49:51.997Z,19.37
2018-08-06T05:52:21.063Z,18.10
2018-08-06T05:54:50.146Z,16.67
2018-08-06T05:57:27.591Z,18.27
2018-08-06T06:00:10.599Z,16.90
2018-08-06T06:02:48.784Z,16.40
2018-08-06T06:05:18.295Z,16.80
2018-08-06T06:07:49.494Z,17.05
2018-08-06T06:10:18.565Z,16.53
2018-08-06T06:12:47.629Z,15.23
2018-08-06T06:15:17.666Z,15.80
2018-08-06T06:17:48.706Z,17.70
2018-08-06T06:20:17.752Z,15.90
2018-08-06T06:22:46.801Z,17.13
2018-08-06T06:27:51.689Z,16.05
2018-08-06T06:30:20.740Z,15.60
2018-08-06T06:33:02.902Z,16.13
2018-08-06T06:35:31.965Z,14.73
2018-08-06T06:38:01.114Z,14.80
2018-08-06T06:40:30.161Z,14.83
2018-08-06T06:42:59.261Z,14.17
2018-08-06T06:45:28.329Z,14.60
2018-08-06T06:47:58.349Z,16.23
2018-08-06T06:50:29.603Z,15.33
2018-08-06T06:52:58.679Z,14.67
2018-08-06T06:55:27.733Z,16.37
2018-08-06T06:57:57.034Z,15.73
2018-08-06T07:00:26.154Z,16.20
2018-08-06T07:02:55.237Z,16.43
2018-08-06T07:05:24.437Z,16.42
2018-08-06T07:07:53.511Z,15.17
2018-08-06T07:10:27.725Z,15.80
2018-08-06T07:12:56.786Z,16.10
2018-08-06T07:18:05.043Z,15.27
2018-08-06T07:20:38.379Z,15.23
2018-08-06T07:23:09.389Z,15.40
2018-08-06T07:30:52.307Z,15.95
2018-08-06T07:33:21.370Z,16.10
2018-08-06T07:35:51.360Z,15.70
2018-08-06T07:38:20.410Z,16.33
2018-08-06T07:40:49.465Z,15.17
2018-08-06T07:43:22.345Z,16.73
2018-08-06T07:45:51.381Z,16.20
2018-08-06T07:48:22.366Z,17.87
2018-08-06T07:53:27.177Z,16.23
2018-08-06T07:55:58.178Z,18.63
2018-08-06T08:01:03.076Z,17.23
2018-08-06T08:03:33.045Z,18.67
2018-08-06T08:11:14.287Z,18.25
2018-08-06T08:13:45.325Z,20.60
2018-08-06T08:16:15.593Z,18.03
2018-08-06T08:21:20.748Z,18.10
2018-08-06T08:23:49.815Z,18.60
2018-08-06T08:26:18.909Z,17.15
2018-08-06T08:28:49.017Z,18.25
2018-08-06T08:31:19.044Z,28.10
2018-08-06T08:33:50.697Z,38.90
2018-08-06T08:38:55.974Z,28.73
2018-08-06T08:41:26.004Z,27.10
2018-08-06T08:43:56.904Z,29.27
2018-08-06T08:46:26.399Z,42.20
2018-08-06T08:48:55.452Z,44.67
2018-08-06T08:51:24.524Z,41.50
2018-08-06T08:53:54.571Z,20.03
2018-08-06T08:56:24.574Z,17.90
2018-08-06T08:58:53.857Z,16.40
2018-08-06T09:01:22.694Z,17.57
2018-08-06T09:03:51.774Z,19.20
2018-08-06T09:06:21.806Z,17.27
2018-08-06T09:08:51.818Z,17.07
2018-08-06T09:11:21.841Z,18.40
2018-08-06T09:13:58.024Z,17.30
2018-08-06T09:16:29.074Z,17.13
2018-08-06T09:19:05.905Z,17.67
2018-08-06T09:21:35.921Z,16.03
2018-08-06T09:24:06.938Z,15.57
2018-08-06T09:29:13.258Z,14.50
2018-08-06T09:31:42.320Z,13.80
2018-08-06T09:34:12.370Z,12.47
2018-08-06T09:39:17.229Z,13.40
2018-08-06T09:41:46.290Z,13.40
2018-08-06T09:44:15.358Z,11.23
2018-08-06T09:46:44.607Z,11.50
2018-08-06T09:49:13.689Z,10.37
2018-08-06T09:51:42.762Z,10.27
2018-08-06T09:54:12.369Z,11.10
2018-08-06T09:56:42.350Z,10.73
2018-08-06T09:59:13.411Z,11.30
2018-08-06T10:01:42.490Z,10.43
2018-08-06T10:04:11.572Z,8.93
2018-08-06T10:06:40.796Z,10.50
2018-08-06T10:09:09.696Z,9.70
2018-08-06T10:11:38.735Z,9.00
2018-08-06T10:14:08.736Z,9.07
2018-08-06T10:16:38.750Z,6.77
2018-08-06T10:19:07.967Z,7.23
2018-08-06T10:21:37.123Z,7.43
2018-08-06T10:24:06.236Z,8.02
2018-08-06T10:26:35.289Z,8.17
2018-08-06T10:29:05.604Z,7.60
2018-08-06T10:34:11.524Z,7.53
2018-08-06T10:36:40.565Z,7.60
2018-08-06T10:39:09.721Z,7.93
2018-08-06T10:41:39.764Z,7.53
2018-08-06T10:44:08.842Z,7.10
2018-08-06T10:46:37.885Z,7.00
2018-08-06T10:49:06.997Z,7.50
2018-08-06T10:51:36.947Z,6.60
2018-08-06T10:54:05.996Z,6.67
2018-08-06T10:56:35.247Z,7.57
2018-08-06T10:59:05.296Z,8.00
2018-08-06T11:01:34.349Z,7.97
2018-08-06T11:04:03.397Z,7.63
2018-08-06T11:06:36.096Z,8.67
2018-08-06T11:09:05.358Z,7.60
2018-08-06T11:11:35.393Z,8.20
2018-08-06T11:14:04.481Z,8.07
2018-08-06T11:16:33.939Z,7.70
2018-08-06T11:19:02.973Z,8.03
2018-08-06T11:21:32.026Z,7.77
2018-08-06T11:24:04.623Z,8.77
2018-08-06T11:26:34.721Z,7.33
2018-08-06T11:29:07.377Z,8.33
2018-08-06T11:31:36.437Z,7.33
2018-08-06T11:34:05.490Z,8.90
2018-08-06T11:36:34.728Z,8.27
2018-08-06T11:39:03.816Z,7.80
2018-08-06T11:46:44.504Z,8.50
2018-08-06T11:49:13.537Z,8.60
2018-08-06T11:51:42.617Z,8.80
2018-08-06T11:56:47.463Z,8.05
2018-08-06T11:59:16.492Z,8.82
2018-08-06T12:01:45.604Z,8.80
2018-08-06T12:04:14.676Z,8.55
2018-08-06T12:06:43.745Z,8.70
2018-08-06T12:09:12.793Z,8.95
2018-08-06T12:11:41.859Z,8.88
2018-08-06T12:14:10.905Z,8.63
2018-08-06T12:16:39.957Z,8.60
2018-08-06T12:21:44.823Z,9.52
2018-08-06T12:26:49.577Z,9.30
2018-08-06T12:29:18.632Z,8.43
2018-08-06T12:31:47.691Z,9.00
2018-08-06T12:34:16.963Z,8.43
2018-08-06T12:39:21.889Z,8.95
2018-08-06T12:41:51.912Z,8.97
2018-08-06T12:44:20.958Z,8.07
2018-08-06T12:46:50.075Z,9.23
2018-08-06T12:49:19.109Z,9.20
2018-08-06T12:51:49.193Z,8.30
2018-08-06T12:54:19.155Z,8.13
2018-08-06T12:56:49.171Z,8.27
2018-08-06T12:59:19.283Z,8.27
2018-08-06T13:01:48.310Z,9.23
2018-08-06T13:04:17.356Z,8.93
2018-08-06T13:06:46.401Z,8.05
2018-08-06T13:11:51.266Z,8.98
2018-08-06T13:14:20.365Z,8.90
2018-08-06T13:16:49.432Z,8.30
2018-08-06T13:19:19.472Z,7.80
2018-08-06T13:21:48.528Z,7.90
2018-08-06T13:24:17.576Z,7.30
2018-08-06T13:26:47.788Z,7.80
2018-08-06T13:29:16.818Z,8.27
2018-08-06T13:31:45.873Z,8.30
2018-08-06T13:34:14.927Z,7.70
2018-08-06T13:36:44.066Z,6.80
2018-08-06T13:39:13.084Z,6.50
2018-08-06T13:41:43.271Z,7.68
2018-08-06T13:44:16.574Z,7.62
2018-08-06T13:46:45.681Z,7.15
2018-08-06T13:49:14.657Z,8.32
2018-08-06T13:51:43.705Z,9.30
2018-08-06T13:54:19.180Z,7.00
2018-08-06T13:56:49.183Z,7.20
2018-08-06T13:59:18.250Z,7.20
2018-08-06T14:01:47.291Z,7.23
2018-08-06T14:04:20.033Z,8.75
2018-08-06T14:06:49.085Z,7.30
2018-08-06T14:09:18.309Z,6.85
2018-08-06T14:11:47.370Z,8.02
2018-08-06T14:16:53.328Z,7.65
2018-08-06T14:19:22.318Z,6.85
2018-08-06T14:21:52.273Z,7.30
2018-08-06T14:24:21.330Z,7.70
2018-08-06T14:26:50.382Z,7.63
2018-08-06T14:29:20.557Z,6.50
2018-08-06T14:31:49.670Z,7.15
2018-08-06T14:34:19.760Z,7.13
2018-08-06T14:36:48.765Z,7.25
2018-08-06T14:39:17.820Z,7.27
2018-08-06T14:41:46.879Z,7.07
2018-08-06T14:44:15.922Z,7.60
2018-08-06T14:46:45.046Z,8.83
2018-08-06T14:49:14.194Z,6.53
2018-08-06T14:51:43.316Z,8.77
2018-08-06T14:54:16.686Z,6.70
2018-08-06T14:56:52.808Z,7.33
2018-08-06T14:59:21.911Z,6.73
2018-08-06T15:01:50.924Z,7.20
2018-08-06T15:04:19.989Z,6.80
2018-08-06T15:06:49.040Z,6.60
2018-08-06T15:09:18.174Z,7.07
2018-08-06T15:11:47.154Z,7.10
2018-08-06T15:16:52.948Z,6.80
2018-08-06T15:19:23.050Z,8.00
2018-08-06T15:24:27.897Z,6.55
2018-08-06T15:26:56.922Z,6.57
2018-08-06T15:29:26.997Z,6.87
2018-08-06T15:31:56.226Z,7.17
2018-08-06T15:34:25.273Z,6.30
2018-08-06T15:36:54.313Z,6.23
2018-08-06T15:39:24.433Z,10.07
2018-08-06T15:41:54.429Z,6.27
2018-08-06T15:44:27.618Z,6.10
2018-08-06T15:46:57.643Z,6.53
2018-08-06T15:49:26.692Z,5.77
2018-08-06T15:51:55.796Z,6.17
2018-08-06T15:54:24.836Z,7.95
2018-08-06T15:56:53.889Z,6.27
2018-08-06T15:59:23.105Z,6.70
2018-08-06T16:01:52.199Z,9.30
2018-08-06T16:06:57.416Z,7.57
2018-08-06T16:09:27.516Z,7.80
2018-08-06T16:11:56.635Z,7.40
2018-08-06T16:14:25.689Z,6.13
2018-08-06T16:16:54.741Z,6.90
2018-08-06T16:19:23.817Z,6.03
2018-08-06T16:22:00.395Z,5.93
2018-08-06T16:27:05.285Z,6.80
2018-08-06T16:29:36.291Z,6.20
2018-08-06T16:32:06.304Z,8.40
2018-08-06T16:34:39.004Z,7.33
2018-08-06T16:39:43.866Z,24.05
2018-08-06T16:42:13.133Z,6.37
2018-08-06T16:44:43.237Z,6.10
2018-08-06T16:47:12.325Z,6.40
2018-08-06T16:49:42.336Z,6.93
2018-08-06T16:52:13.492Z,6.33
2018-08-06T16:54:42.553Z,5.70
2018-08-06T16:57:11.627Z,6.13
2018-08-06T16:59:41.646Z,7.30
2018-08-06T17:02:10.697Z,6.70
2018-08-06T17:04:39.797Z,6.10
2018-08-06T17:07:08.859Z,6.77
2018-08-06T17:09:37.907Z,6.90
2018-08-06T17:12:06.956Z,6.73
2018-08-06T17:14:36.962Z,7.03
2018-08-06T17:17:06.033Z,7.47
2018-08-06T17:22:11.877Z,6.78
2018-08-06T17:24:40.908Z,6.10
2018-08-06T17:29:46.978Z,6.60
2018-08-06T17:34:52.112Z,7.18
2018-08-06T17:39:58.455Z,9.43
2018-08-06T17:42:31.354Z,9.77
2018-08-06T17:45:00.426Z,7.30
2018-08-06T17:47:29.478Z,6.20
2018-08-06T17:49:58.530Z,7.77
2018-08-06T17:55:03.566Z,6.28
2018-08-06T17:57:32.613Z,7.43
2018-08-06T18:00:01.695Z,6.40
2018-08-06T18:02:30.853Z,6.43
2018-08-06T18:04:59.893Z,8.03
2018-08-06T18:07:28.973Z,8.18
2018-08-06T18:12:33.865Z,12.73
2018-08-06T18:15:03.871Z,11.00
2018-08-06T18:17:32.942Z,10.60
2018-08-06T18:20:02.213Z,6.57
2018-08-06T18:22:31.248Z,6.70
2018-08-06T18:25:00.297Z,7.40
2018-08-06T18:27:29.408Z,6.93
2018-08-06T18:29:59.377Z,7.00
2018-08-06T18:35:04.266Z,8.18
2018-08-06T18:37:33.425Z,10.23
2018-08-06T18:42:38.320Z,8.35
2018-08-06T18:45:08.414Z,8.87
2018-08-06T18:47:37.477Z,8.80
2018-08-06T18:52:43.356Z,9.48
2018-08-06T18:55:12.448Z,10.05
2018-08-06T18:57:41.546Z,7.80
2018-08-06T19:00:10.591Z,7.72
2018-08-06T19:05:15.512Z,9.48
2018-08-06T19:07:44.518Z,10.30
2018-08-06T19:10:13.575Z,11.47
2018-08-06T19:12:42.624Z,16.80
2018-08-06T19:15:11.681Z,36.17
2018-08-06T19:17:40.725Z,31.53
2018-08-06T19:22:46.585Z,22.73
2018-08-06T19:25:31.252Z,15.98
2018-08-06T19:28:00.445Z,11.70
2018-08-06T19:30:29.478Z,9.67
2018-08-06T19:32:58.542Z,10.80
2018-08-06T19:35:27.592Z,12.50
2018-08-06T19:37:56.661Z,11.20
2018-08-06T19:40:25.701Z,12.00
2018-08-06T19:42:54.788Z,9.97
2018-08-06T19:45:24.813Z,9.03
2018-08-06T19:47:53.888Z,8.97
2018-08-06T19:50:23.031Z,9.60
2018-08-06T19:52:53.041Z,16.63
2018-08-06T19:55:23.021Z,12.23
2018-08-06T20:03:03.648Z,9.88
2018-08-06T20:08:08.398Z,9.75
2018-08-06T20:10:40.748Z,9.37
2018-08-06T20:15:49.981Z,10.48
2018-08-06T20:18:19.073Z,10.23
2018-08-06T20:20:48.135Z,9.60
2018-08-06T20:23:17.179Z,9.70
2018-08-06T20:25:46.245Z,10.73
2018-08-06T20:28:15.290Z,10.30
2018-08-06T20:33:20.155Z,9.98
2018-08-06T20:35:49.196Z,9.73
2018-08-06T20:38:18.251Z,10.17
2018-08-06T20:40:47.318Z,9.77
2018-08-06T20:43:16.375Z,10.30
2018-08-06T20:45:45.435Z,9.57
2018-08-06T20:48:16.480Z,10.20
2018-08-06T20:53:21.351Z,10.55
2018-08-06T20:55:51.331Z,10.98
2018-08-06T20:58:20.394Z,10.60
2018-08-06T21:00:49.447Z,10.70
2018-08-06T21:03:19.462Z,11.27
2018-08-06T21:05:48.524Z,9.20
2018-08-06T21:08:17.588Z,10.90
2018-08-06T21:10:46.626Z,9.80
2018-08-06T21:13:15.697Z,10.90
2018-08-06T21:15:44.742Z,12.20
2018-08-06T21:18:13.825Z,11.23
2018-08-06T21:23:18.632Z,10.65
2018-08-06T21:25:47.690Z,10.40
2018-08-06T21:30:52.482Z,10.02
2018-08-06T21:33:23.503Z,20.73
2018-08-06T21:35:53.515Z,10.10
2018-08-06T21:38:22.569Z,10.40
2018-08-06T21:40:51.609Z,8.93
2018-08-06T21:43:22.663Z,9.00
2018-08-06T21:45:51.815Z,8.80
2018-08-06T21:50:56.538Z,9.38
2018-08-06T21:53:25.577Z,8.73
2018-08-06T21:58:30.377Z,8.80
2018-08-06T22:01:00.370Z,10.40
2018-08-06T22:03:29.432Z,9.30
2018-08-06T22:05:58.468Z,8.97
2018-08-06T22:08:32.797Z,8.37
2018-08-06T22:11:02.828Z,9.40
2018-08-06T22:16:07.713Z,9.20
2018-08-06T22:18:36.762Z,8.67
2018-08-06T22:21:05.814Z,9.33
2018-08-06T22:23:34.890Z,8.90
2018-08-06T22:26:03.908Z,8.70
2018-08-06T22:28:34.008Z,8.73
2018-08-06T22:31:03.053Z,8.30
2018-08-06T22:33:32.102Z,8.87
2018-08-06T22:36:01.176Z,9.20
2018-08-06T22:38:31.211Z,9.60
2018-08-06T22:41:00.276Z,8.43
2018-08-06T22:43:29.348Z,8.37
2018-08-06T22:45:58.364Z,8.30
2018-08-06T22:51:03.175Z,8.60
2018-08-06T22:53:32.324Z,9.13
2018-08-06T22:56:05.528Z,9.13
2018-08-06T22:58:34.584Z,8.27
2018-08-06T23:01:03.629Z,8.32
2018-08-06T23:03:32.694Z,9.07
2018-08-06T23:06:01.761Z,8.87
2018-08-06T23:08:30.829Z,8.90
2018-08-06T23:13:35.605Z,8.60
2018-08-06T23:16:04.656Z,8.40
2018-08-06T23:21:09.510Z,9.40
2018-08-06T23:26:15.315Z,9.32
2018-08-06T23:28:44.602Z,8.80
2018-08-06T23:31:13.701Z,9.00
2018-08-06T23:36:18.521Z,9.10
2018-08-06T23:38:47.588Z,10.30
2018-08-06T23:41:16.626Z,9.32
2018-08-06T23:43:45.712Z,9.70
2018-08-06T23:46:14.813Z,8.70
2018-08-06T23:51:19.753Z,10.70
2018-08-06T23:53:48.809Z,10.43
2018-08-06T23:56:17.870Z,11.40
2018-08-06T23:58:46.925Z,9.60
